Terminal Aerodrome Forecast
Issued by NWS

Home | Current Version | Previous Version | Graphics & Text | Print | Product List | Glossary On
Versions: 1 2 3 4 5 6 7 8 9 10 11 12 13 14 15 16
000
FTUS43 KGRB 221100
TAFCWA
TAF
KCWA 221130Z 2212/2312 18008G14KT P6SM SCT020 BKN200 WS010/21035KT
      TEMPO 2212/2215 BKN018 BKN025
     FM221500 21013G22KT P6SM SCT020 BKN200
     FM221800 28014G28KT P6SM SCT035 BKN060
     FM222200 34012G20KT P6SM SCT035
     FM230200 35006KT P6SM SKC=

USA.gov is the U.S. government's official web portal to all federal, state and local government web resources and services.